sensor_id;sensor_type;location;lat;lon;timestamp;pressure;altitude;pressure_sealevel;temperature;humidity
78717;BME280;68045;50.042;14.432;2024-01-30T00:03:10;100074.63;;;1.60;80.19
78717;BME280;68045;50.042;14.432;2024-01-30T00:07:11;100070.56;;;1.67;79.39
78717;BME280;68045;50.042;14.432;2024-01-30T00:11:11;100069.63;;;1.47;80.56
78717;BME280;68045;50.042;14.432;2024-01-30T00:15:12;100075.97;;;1.54;80.13
78717;BME280;68045;50.042;14.432;2024-01-30T00:19:13;100074.25;;;1.64;79.92
78717;BME280;68045;50.042;14.432;2024-01-30T00:23:14;100064.53;;;1.67;79.65
78717;BME280;68045;50.042;14.432;2024-01-30T00:27:15;100056.47;;;1.90;78.80
78717;BME280;68045;50.042;14.432;2024-01-30T00:31:15;100052.34;;;1.67;79.40
78717;BME280;68045;50.042;14.432;2024-01-30T00:35:16;100057.69;;;1.65;79.80
78717;BME280;68045;50.042;14.432;2024-01-30T00:39:17;100050.44;;;1.69;78.61
78717;BME280;68045;50.042;14.432;2024-01-30T00:43:20;100050.38;;;1.80;78.30
78717;BME280;68045;50.042;14.432;2024-01-30T00:47:21;100059.19;;;1.68;79.16
78717;BME280;68045;50.042;14.432;2024-01-30T00:51:22;100045.34;;;1.37;79.15
78717;BME280;68045;50.042;14.432;2024-01-30T00:55:23;100049.25;;;1.31;80.13
78717;BME280;68045;50.042;14.432;2024-01-30T00:59:24;100045.84;;;1.52;79.31
78717;BME280;68045;50.042;14.432;2024-01-30T01:03:25;100053.41;;;1.34;79.21
78717;BME280;68045;50.042;14.432;2024-01-30T01:07:26;100042.41;;;1.09;81.09
78717;BME280;68045;50.042;14.432;2024-01-30T01:11:27;100036.81;;;1.14;81.06
78717;BME280;68045;50.042;14.432;2024-01-30T01:15:28;100034.88;;;1.27;81.34
78717;BME280;68045;50.042;14.432;2024-01-30T01:19:28;100037.63;;;0.94;82.32
78717;BME280;68045;50.042;14.432;2024-01-30T01:23:29;100031.22;;;0.98;81.91
78717;BME280;68045;50.042;14.432;2024-01-30T01:27:30;100037.31;;;1.08;81.46
78717;BME280;68045;50.042;14.432;2024-01-30T01:31:32;100030.22;;;1.10;81.25
78717;BME280;68045;50.042;14.432;2024-01-30T01:35:33;100030.59;;;1.26;80.58
78717;BME280;68045;50.042;14.432;2024-01-30T01:39:35;100030.16;;;1.00;81.54
78717;BME280;68045;50.042;14.432;2024-01-30T01:43:36;100034.78;;;0.65;83.54
78717;BME280;68045;50.042;14.432;2024-01-30T01:47:38;100041.28;;;0.48;82.96
78717;BME280;68045;50.042;14.432;2024-01-30T01:51:40;100039.38;;;0.61;84.67
78717;BME280;68045;50.042;14.432;2024-01-30T01:55:41;100033.47;;;0.59;84.10
78717;BME280;68045;50.042;14.432;2024-01-30T01:59:42;100027.34;;;0.49;84.06
78717;BME280;68045;50.042;14.432;2024-01-30T02:03:44;100032.94;;;0.44;83.91
78717;BME280;68045;50.042;14.432;2024-01-30T02:07:45;100022.69;;;0.75;84.04
78717;BME280;68045;50.042;14.432;2024-01-30T02:11:46;100027.25;;;0.82;83.45
78717;BME280;68045;50.042;14.432;2024-01-30T02:15:51;100028.66;;;0.87;83.92
78717;BME280;68045;50.042;14.432;2024-01-30T02:19:52;100029.13;;;0.92;82.49
78717;BME280;68045;50.042;14.432;2024-01-30T02:23:54;100022.53;;;0.88;82.94
78717;BME280;68045;50.042;14.432;2024-01-30T02:27:55;100023.91;;;0.71;82.85
78717;BME280;68045;50.042;14.432;2024-01-30T02:31:56;100029.66;;;0.74;83.31
78717;BME280;68045;50.042;14.432;2024-01-30T02:35:57;100029.69;;;0.63;83.75
78717;BME280;68045;50.042;14.432;2024-01-30T02:39:58;100030.25;;;0.78;83.79
78717;BME280;68045;50.042;14.432;2024-01-30T02:43:59;100025.31;;;0.96;82.33
78717;BME280;68045;50.042;14.432;2024-01-30T02:48:00;100026.16;;;1.17;82.36
78717;BME280;68045;50.042;14.432;2024-01-30T02:52:01;100016.34;;;1.21;82.18
78717;BME280;68045;50.042;14.432;2024-01-30T02:56:02;100021.13;;;1.04;82.57
78717;BME280;68045;50.042;14.432;2024-01-30T03:00:04;100020.91;;;1.28;81.73
78717;BME280;68045;50.042;14.432;2024-01-30T03:04:06;100012.94;;;1.20;81.67
78717;BME280;68045;50.042;14.432;2024-01-30T03:08:07;100016.59;;;1.18;81.57
78717;BME280;68045;50.042;14.432;2024-01-30T03:12:08;100012.13;;;0.88;81.57
78717;BME280;68045;50.042;14.432;2024-01-30T03:16:09;100007.69;;;0.78;81.57
78717;BME280;68045;50.042;14.432;2024-01-30T03:20:10;100007.72;;;0.67;82.30
78717;BME280;68045;50.042;14.432;2024-01-30T03:24:11;100007.97;;;0.64;82.96
78717;BME280;68045;50.042;14.432;2024-01-30T03:28:12;100004.13;;;0.79;81.72
78717;BME280;68045;50.042;14.432;2024-01-30T03:32:13;99996.66;;;0.86;81.33
78717;BME280;68045;50.042;14.432;2024-01-30T03:36:15;99997.78;;;0.72;82.01
78717;BME280;68045;50.042;14.432;2024-01-30T03:40:16;100004.75;;;0.72;81.98
78717;BME280;68045;50.042;14.432;2024-01-30T03:44:17;99995.25;;;0.50;82.22
78717;BME280;68045;50.042;14.432;2024-01-30T03:48:18;100007.84;;;0.22;83.08
78717;BME280;68045;50.042;14.432;2024-01-30T03:52:19;99993.59;;;-0.06;84.74
78717;BME280;68045;50.042;14.432;2024-01-30T03:56:20;99991.44;;;-0.01;85.28
78717;BME280;68045;50.042;14.432;2024-01-30T04:00:21;99985.22;;;0.02;85.64
78717;BME280;68045;50.042;14.432;2024-01-30T04:04:22;99980.38;;;0.09;85.69
78717;BME280;68045;50.042;14.432;2024-01-30T04:08:23;99976.94;;;0.08;85.00
78717;BME280;68045;50.042;14.432;2024-01-30T04:12:24;99980.78;;;0.36;85.32
78717;BME280;68045;50.042;14.432;2024-01-30T04:16:26;99979.97;;;0.24;84.60
78717;BME280;68045;50.042;14.432;2024-01-30T04:20:26;99982.56;;;0.24;85.16
78717;BME280;68045;50.042;14.432;2024-01-30T04:24:27;99982.56;;;0.36;84.34
78717;BME280;68045;50.042;14.432;2024-01-30T04:28:31;99979.22;;;0.45;84.21
78717;BME280;68045;50.042;14.432;2024-01-30T04:32:32;99981.25;;;0.30;83.97
78717;BME280;68045;50.042;14.432;2024-01-30T04:36:33;99979.16;;;0.13;84.34
78717;BME280;68045;50.042;14.432;2024-01-30T04:40:34;99984.94;;;0.05;85.22
78717;BME280;68045;50.042;14.432;2024-01-30T04:44:35;99987.06;;;0.11;85.47
78717;BME280;68045;50.042;14.432;2024-01-30T04:48:36;99993.69;;;0.04;85.47
78717;BME280;68045;50.042;14.432;2024-01-30T04:52:37;99995.41;;;0.26;84.67
78717;BME280;68045;50.042;14.432;2024-01-30T04:56:37;99988.66;;;0.35;84.67
78717;BME280;68045;50.042;14.432;2024-01-30T05:00:40;99992.00;;;0.37;84.25
78717;BME280;68045;50.042;14.432;2024-01-30T05:04:41;99998.78;;;0.49;82.36
78717;BME280;68045;50.042;14.432;2024-01-30T05:08:42;99988.66;;;0.35;82.67
78717;BME280;68045;50.042;14.432;2024-01-30T05:12:44;99995.63;;;0.34;83.95
78717;BME280;68045;50.042;14.432;2024-01-30T05:16:44;100004.59;;;0.41;84.04
78717;BME280;68045;50.042;14.432;2024-01-30T05:20:47;100008.00;;;0.53;83.33
78717;BME280;68045;50.042;14.432;2024-01-30T05:24:48;100002.97;;;0.72;83.20
78717;BME280;68045;50.042;14.432;2024-01-30T05:28:49;100002.09;;;0.83;81.72
78717;BME280;68045;50.042;14.432;2024-01-30T05:32:49;100007.69;;;0.78;81.64
78717;BME280;68045;50.042;14.432;2024-01-30T05:36:50;100007.59;;;0.69;83.17
78717;BME280;68045;50.042;14.432;2024-01-30T05:40:51;99997.78;;;0.72;82.11
78717;BME280;68045;50.042;14.432;2024-01-30T05:44:52;100004.03;;;0.70;82.09
78717;BME280;68045;50.042;14.432;2024-01-30T05:48:53;99998.97;;;0.68;82.58
78717;BME280;68045;50.042;14.432;2024-01-30T05:52:53;99999.03;;;0.57;83.80
78717;BME280;68045;50.042;14.432;2024-01-30T05:56:54;99998.75;;;0.60;83.21
78717;BME280;68045;50.042;14.432;2024-01-30T06:00:55;100001.34;;;0.60;83.29
78717;BME280;68045;50.042;14.432;2024-01-30T06:04:56;99995.75;;;0.33;84.26
78717;BME280;68045;50.042;14.432;2024-01-30T06:08:57;99994.25;;;0.30;84.32
78717;BME280;68045;50.042;14.432;2024-01-30T06:12:58;99997.41;;;0.34;85.46
78717;BME280;68045;50.042;14.432;2024-01-30T06:16:59;99989.59;;;0.45;85.10
78717;BME280;68045;50.042;14.432;2024-01-30T06:21:00;99991.38;;;0.44;84.49
78717;BME280;68045;50.042;14.432;2024-01-30T06:25:01;99991.50;;;0.43;84.87
78717;BME280;68045;50.042;14.432;2024-01-30T06:29:02;99994.00;;;0.33;84.03
78717;BME280;68045;50.042;14.432;2024-01-30T06:33:03;100005.78;;;0.37;85.02
78717;BME280;68045;50.042;14.432;2024-01-30T06:37:04;100009.16;;;0.60;83.57
78717;BME280;68045;50.042;14.432;2024-01-30T06:41:05;100005.06;;;0.35;84.65
78717;BME280;68045;50.042;14.432;2024-01-30T06:45:07;100013.38;;;0.18;85.77
78717;BME280;68045;50.042;14.432;2024-01-30T06:49:08;100008.84;;;0.42;84.90
78717;BME280;68045;50.042;14.432;2024-01-30T06:53:09;100012.31;;;0.20;85.73
78717;BME280;68045;50.042;14.432;2024-01-30T06:57:10;100015.09;;;0.40;85.63
78717;BME280;68045;50.042;14.432;2024-01-30T07:01:12;100012.22;;;0.65;84.07
78717;BME280;68045;50.042;14.432;2024-01-30T07:05:13;100020.84;;;0.66;82.56
78717;BME280;68045;50.042;14.432;2024-01-30T07:09:14;100025.06;;;0.78;82.98
78717;BME280;68045;50.042;14.432;2024-01-30T07:13:15;100031.50;;;0.83;82.01
78717;BME280;68045;50.042;14.432;2024-01-30T07:17:17;100034.03;;;0.74;81.76
78717;BME280;68045;50.042;14.432;2024-01-30T07:21:17;100029.97;;;0.81;80.83
78717;BME280;68045;50.042;14.432;2024-01-30T07:25:18;100034.22;;;0.82;81.10
78717;BME280;68045;50.042;14.432;2024-01-30T07:29:20;100036.69;;;0.83;80.20
78717;BME280;68045;50.042;14.432;2024-01-30T07:33:22;100030.22;;;0.46;79.97
78717;BME280;68045;50.042;14.432;2024-01-30T07:37:23;100036.63;;;-0.03;82.60
78717;BME280;68045;50.042;14.432;2024-01-30T07:41:24;100046.41;;;0.05;83.35
78717;BME280;68045;50.042;14.432;2024-01-30T07:45:25;100048.19;;;-0.07;83.13
78717;BME280;68045;50.042;14.432;2024-01-30T07:49:28;100062.72;;;-0.05;83.15
78717;BME280;68045;50.042;14.432;2024-01-30T07:53:29;100058.31;;;-0.38;83.97
78717;BME280;68045;50.042;14.432;2024-01-30T07:57:30;100065.91;;;-0.70;85.18
78717;BME280;68045;50.042;14.432;2024-01-30T08:01:30;100068.00;;;-0.75;85.55
78717;BME280;68045;50.042;14.432;2024-01-30T08:05:31;100055.44;;;-0.57;86.65
78717;BME280;68045;50.042;14.432;2024-01-30T08:09:32;100049.50;;;-0.35;86.14
78717;BME280;68045;50.042;14.432;2024-01-30T08:13:33;100056.91;;;-0.08;84.16
78717;BME280;68045;50.042;14.432;2024-01-30T08:17:34;100046.66;;;-0.10;82.95
78717;BME280;68045;50.042;14.432;2024-01-30T08:21:35;100049.16;;;-0.19;83.09
78717;BME280;68045;50.042;14.432;2024-01-30T08:25:36;100044.53;;;-0.05;82.58
78717;BME280;68045;50.042;14.432;2024-01-30T08:29:37;100049.88;;;-0.06;82.91
78717;BME280;68045;50.042;14.432;2024-01-30T08:33:38;100042.28;;;-0.09;82.33
78717;BME280;68045;50.042;14.432;2024-01-30T08:37:39;100042.78;;;-0.04;81.53
78717;BME280;68045;50.042;14.432;2024-01-30T08:41:40;100052.09;;;-0.13;82.04
78717;BME280;68045;50.042;14.432;2024-01-30T08:45:41;100046.91;;;0.10;80.54
78717;BME280;68045;50.042;14.432;2024-01-30T08:49:43;100049.81;;;0.27;79.82
78717;BME280;68045;50.042;14.432;2024-01-30T08:53:44;100044.72;;;0.48;79.05
78717;BME280;68045;50.042;14.432;2024-01-30T08:57:45;100041.47;;;0.78;78.46
78717;BME280;68045;50.042;14.432;2024-01-30T09:01:46;100041.72;;;1.28;76.34
78717;BME280;68045;50.042;14.432;2024-01-30T09:05:47;100044.06;;;1.52;75.92
78717;BME280;68045;50.042;14.432;2024-01-30T09:09:48;100047.56;;;1.62;74.70
78717;BME280;68045;50.042;14.432;2024-01-30T09:13:49;100036.06;;;1.65;73.64
78717;BME280;68045;50.042;14.432;2024-01-30T09:17:50;100041.91;;;1.57;73.60
78717;BME280;68045;50.042;14.432;2024-01-30T09:21:51;100036.00;;;1.55;73.44
78717;BME280;68045;50.042;14.432;2024-01-30T09:25:52;100038.22;;;1.39;73.36
78717;BME280;68045;50.042;14.432;2024-01-30T09:29:53;100044.56;;;1.25;73.97
78717;BME280;68045;50.042;14.432;2024-01-30T09:33:54;100047.63;;;1.30;74.24
78717;BME280;68045;50.042;14.432;2024-01-30T09:37:55;100050.72;;;1.45;74.88
78717;BME280;68045;50.042;14.432;2024-01-30T09:46:17;100056.63;;;1.99;73.25
78717;BME280;68045;50.042;14.432;2024-01-30T09:50:19;100049.22;;;2.04;73.53
78717;BME280;68045;50.042;14.432;2024-01-30T09:54:21;100048.06;;;2.17;73.10
78717;BME280;68045;50.042;14.432;2024-01-30T09:58:22;100047.34;;;2.06;73.02
78717;BME280;68045;50.042;14.432;2024-01-30T10:02:23;100046.28;;;1.87;74.11
78717;BME280;68045;50.042;14.432;2024-01-30T10:06:24;100039.19;;;2.30;73.06
78717;BME280;68045;50.042;14.432;2024-01-30T10:10:25;100033.13;;;2.19;73.54
78717;BME280;68045;50.042;14.432;2024-01-30T10:14:26;100036.50;;;2.10;74.58
78717;BME280;68045;50.042;14.432;2024-01-30T10:18:27;100024.94;;;1.93;75.64
78717;BME280;68045;50.042;14.432;2024-01-30T10:22:28;100018.63;;;1.86;76.31
78717;BME280;68045;50.042;14.432;2024-01-30T10:26:29;100014.69;;;1.92;76.42
78717;BME280;68045;50.042;14.432;2024-01-30T10:30:33;100010.00;;;1.96;76.78
78717;BME280;68045;50.042;14.432;2024-01-30T10:34:34;100026.59;;;1.95;77.37
78717;BME280;68045;50.042;14.432;2024-01-30T10:38:36;100019.78;;;1.42;79.04
78717;BME280;68045;50.042;14.432;2024-01-30T10:42:39;100017.53;;;1.37;80.12
78717;BME280;68045;50.042;14.432;2024-01-30T10:46:45;100017.91;;;1.12;81.28
78717;BME280;68045;50.042;14.432;2024-01-30T10:50:50;100010.94;;;1.33;80.86
78717;BME280;68045;50.042;14.432;2024-01-30T10:54:51;100006.50;;;1.45;80.52
78717;BME280;68045;50.042;14.432;2024-01-30T10:58:54;100012.16;;;1.29;81.83
78717;BME280;68045;50.042;14.432;2024-01-30T11:02:56;100022.44;;;1.31;81.05
78717;BME280;68045;50.042;14.432;2024-01-30T11:06:57;100017.72;;;1.46;80.86
78717;BME280;68045;50.042;14.432;2024-01-30T11:10:58;99996.25;;;1.53;81.02
78717;BME280;68045;50.042;14.432;2024-01-30T11:15:06;99991.06;;;1.53;80.00
78717;BME280;68045;50.042;14.432;2024-01-30T11:19:11;99992.84;;;1.53;80.08
78717;BME280;68045;50.042;14.432;2024-01-30T11:23:12;100000.09;;;1.80;79.39
78717;BME280;68045;50.042;14.432;2024-01-30T11:27:14;99985.81;;;1.74;79.56
78717;BME280;68045;50.042;14.432;2024-01-30T11:31:18;99981.72;;;1.72;79.81
78717;BME280;68045;50.042;14.432;2024-01-30T11:35:19;99974.63;;;1.53;79.85
78717;BME280;68045;50.042;14.432;2024-01-30T11:39:20;99987.06;;;1.70;80.32
78717;BME280;68045;50.042;14.432;2024-01-30T11:43:23;99982.56;;;1.82;78.97
78717;BME280;68045;50.042;14.432;2024-01-30T11:47:24;99969.34;;;2.04;78.42
78717;BME280;68045;50.042;14.432;2024-01-30T11:51:25;99967.16;;;2.00;78.82
78717;BME280;68045;50.042;14.432;2024-01-30T11:55:26;99961.38;;;1.96;79.22
78717;BME280;68045;50.042;14.432;2024-01-30T11:59:27;99954.09;;;1.90;77.98
78717;BME280;68045;50.042;14.432;2024-01-30T12:03:28;99955.19;;;1.97;77.92
78717;BME280;68045;50.042;14.432;2024-01-30T12:07:29;99951.97;;;2.14;77.60
78717;BME280;68045;50.042;14.432;2024-01-30T12:11:30;99950.88;;;2.17;77.72
78717;BME280;68045;50.042;14.432;2024-01-30T12:15:31;99937.97;;;2.25;77.68
78717;BME280;68045;50.042;14.432;2024-01-30T12:19:32;99951.97;;;2.24;76.83
78717;BME280;68045;50.042;14.432;2024-01-30T12:23:33;99942.19;;;1.97;77.83
78717;BME280;68045;50.042;14.432;2024-01-30T12:27:34;99931.50;;;2.00;77.57
78717;BME280;68045;50.042;14.432;2024-01-30T12:31:35;99936.34;;;2.05;77.78
78717;BME280;68045;50.042;14.432;2024-01-30T12:35:36;99933.09;;;1.82;78.53
78717;BME280;68045;50.042;14.432;2024-01-30T12:39:37;99925.75;;;1.97;79.06
78717;BME280;68045;50.042;14.432;2024-01-30T12:43:38;99926.41;;;1.89;78.74
78717;BME280;68045;50.042;14.432;2024-01-30T12:47:39;99924.91;;;1.86;78.34
78717;BME280;68045;50.042;14.432;2024-01-30T12:51:40;99927.41;;;1.98;78.39
78717;BME280;68045;50.042;14.432;2024-01-30T12:55:41;99929.59;;;1.92;78.14
78717;BME280;68045;50.042;14.432;2024-01-30T12:59:42;99920.28;;;2.00;78.18
78717;BME280;68045;50.042;14.432;2024-01-30T13:03:44;99911.69;;;2.28;77.79
78717;BME280;68045;50.042;14.432;2024-01-30T13:07:46;99925.09;;;2.14;77.40
78717;BME280;68045;50.042;14.432;2024-01-30T13:11:47;99918.09;;;2.14;77.65
78717;BME280;68045;50.042;14.432;2024-01-30T13:15:48;99919.34;;;2.20;76.67
78717;BME280;68045;50.042;14.432;2024-01-30T13:19:49;99925.34;;;2.11;77.74
78717;BME280;68045;50.042;14.432;2024-01-30T13:23:50;99926.16;;;2.11;77.61
78717;BME280;68045;50.042;14.432;2024-01-30T13:27:54;99924.44;;;2.22;76.71
78717;BME280;68045;50.042;14.432;2024-01-30T13:31:55;99918.13;;;2.34;76.32
78717;BME280;68045;50.042;14.432;2024-01-30T13:35:56;99909.91;;;2.29;76.66
78717;BME280;68045;50.042;14.432;2024-01-30T13:39:57;99909.78;;;2.40;76.67
78717;BME280;68045;50.042;14.432;2024-01-30T13:43:58;99907.84;;;2.61;75.99
78717;BME280;68045;50.042;14.432;2024-01-30T13:47:59;99910.75;;;2.48;75.91
78717;BME280;68045;50.042;14.432;2024-01-30T13:52:00;99903.47;;;2.62;75.77
78717;BME280;68045;50.042;14.432;2024-01-30T13:56:01;99894.81;;;2.61;76.22
78717;BME280;68045;50.042;14.432;2024-01-30T14:00:03;99890.31;;;2.34;76.56
78717;BME280;68045;50.042;14.432;2024-01-30T14:04:13;99896.75;;;2.20;77.18
78717;BME280;68045;50.042;14.432;2024-01-30T14:08:15;99890.44;;;2.42;77.02
78717;BME280;68045;50.042;14.432;2024-01-30T14:12:16;99902.22;;;2.56;76.68
78717;BME280;68045;50.042;14.432;2024-01-30T14:16:17;99899.59;;;2.66;76.57
78717;BME280;68045;50.042;14.432;2024-01-30T14:20:18;99891.25;;;2.62;76.38
78717;BME280;68045;50.042;14.432;2024-01-30T14:24:19;99891.41;;;2.61;76.21
78717;BME280;68045;50.042;14.432;2024-01-30T14:28:20;99888.66;;;2.62;76.28
78717;BME280;68045;50.042;14.432;2024-01-30T14:32:21;99886.84;;;2.72;76.18
78717;BME280;68045;50.042;14.432;2024-01-30T14:36:22;99875.19;;;2.67;77.19
78717;BME280;68045;50.042;14.432;2024-01-30T14:40:23;99879.47;;;2.68;76.35
78717;BME280;68045;50.042;14.432;2024-01-30T14:44:24;99886.03;;;2.72;76.76
78717;BME280;68045;50.042;14.432;2024-01-30T14:48:25;99879.19;;;2.61;76.91
78717;BME280;68045;50.042;14.432;2024-01-30T14:52:25;99882.06;;;2.39;77.20
78717;BME280;68045;50.042;14.432;2024-01-30T14:56:27;99888.38;;;2.36;77.78
78717;BME280;68045;50.042;14.432;2024-01-30T15:00:28;99885.09;;;2.34;77.53
78717;BME280;68045;50.042;14.432;2024-01-30T15:04:29;99880.28;;;2.59;76.85
78717;BME280;68045;50.042;14.432;2024-01-30T15:08:30;99887.16;;;2.40;77.42
78717;BME280;68045;50.042;14.432;2024-01-30T15:12:31;99890.44;;;2.42;77.91
78717;BME280;68045;50.042;14.432;2024-01-30T15:16:32;99886.03;;;2.62;76.80
78717;BME280;68045;50.042;14.432;2024-01-30T15:20:33;99877.81;;;2.57;76.97
78717;BME280;68045;50.042;14.432;2024-01-30T15:24:33;99875.50;;;2.54;76.74
78717;BME280;68045;50.042;14.432;2024-01-30T15:28:38;99879.03;;;2.53;77.07
78717;BME280;68045;50.042;14.432;2024-01-30T15:32:39;99873.41;;;2.38;77.54
78717;BME280;68045;50.042;14.432;2024-01-30T15:36:40;99874.66;;;2.25;78.25
78717;BME280;68045;50.042;14.432;2024-01-30T15:40:41;99885.63;;;2.18;78.25
78717;BME280;68045;50.042;14.432;2024-01-30T15:44:41;99883.56;;;2.22;78.49
78717;BME280;68045;50.042;14.432;2024-01-30T15:48:42;99882.88;;;2.01;78.96
78717;BME280;68045;50.042;14.432;2024-01-30T15:52:43;99887.41;;;2.18;78.00
78717;BME280;68045;50.042;14.432;2024-01-30T15:56:44;99887.28;;;2.29;78.10
78717;BME280;68045;50.042;14.432;2024-01-30T16:00:44;99889.47;;;2.05;79.00
78717;BME280;68045;50.042;14.432;2024-01-30T16:04:46;99891.34;;;1.93;79.79
78717;BME280;68045;50.042;14.432;2024-01-30T16:08:47;99893.81;;;1.85;79.78
78717;BME280;68045;50.042;14.432;2024-01-30T16:12:48;99895.88;;;1.91;79.55
78717;BME280;68045;50.042;14.432;2024-01-30T16:16:48;99900.81;;;1.94;79.52
78717;BME280;68045;50.042;14.432;2024-01-30T16:20:49;99905.72;;;1.87;80.26
78717;BME280;68045;50.042;14.432;2024-01-30T16:24:50;99909.44;;;1.95;79.30
78717;BME280;68045;50.042;14.432;2024-01-30T16:28:51;99913.50;;;1.78;80.07
78717;BME280;68045;50.042;14.432;2024-01-30T16:32:52;99910.19;;;1.66;80.90
78717;BME280;68045;50.042;14.432;2024-01-30T16:36:53;99907.31;;;1.69;80.58
78717;BME280;68045;50.042;14.432;2024-01-30T16:40:54;99912.81;;;1.76;80.51
78717;BME280;68045;50.042;14.432;2024-01-30T16:44:54;99903.78;;;1.89;80.44
78717;BME280;68045;50.042;14.432;2024-01-30T16:48:55;99904.22;;;1.85;80.13
78717;BME280;68045;50.042;14.432;2024-01-30T16:52:56;99905.19;;;1.84;80.39
78717;BME280;68045;50.042;14.432;2024-01-30T16:56:57;99899.97;;;1.84;80.43
78717;BME280;68045;50.042;14.432;2024-01-30T17:00:58;99902.97;;;1.79;80.57
78717;BME280;68045;50.042;14.432;2024-01-30T17:04:59;99904.34;;;1.83;80.13
78717;BME280;68045;50.042;14.432;2024-01-30T17:09:00;99912.28;;;1.82;80.32
78717;BME280;68045;50.042;14.432;2024-01-30T17:13:01;99918.06;;;1.85;79.91
78717;BME280;68045;50.042;14.432;2024-01-30T17:17:01;99924.88;;;1.77;80.43
78717;BME280;68045;50.042;14.432;2024-01-30T17:21:04;99928.03;;;1.90;80.20
78717;BME280;68045;50.042;14.432;2024-01-30T17:25:05;99925.56;;;1.79;80.27
78717;BME280;68045;50.042;14.432;2024-01-30T17:29:06;99919.34;;;1.60;80.87
78717;BME280;68045;50.042;14.432;2024-01-30T17:33:07;99917.44;;;1.62;80.89
78717;BME280;68045;50.042;14.432;2024-01-30T17:37:09;99916.72;;;1.60;81.15
78717;BME280;68045;50.042;14.432;2024-01-30T17:41:10;99917.31;;;1.64;80.96
78717;BME280;68045;50.042;14.432;2024-01-30T17:45:10;99917.38;;;1.53;81.63
78717;BME280;68045;50.042;14.432;2024-01-30T17:49:11;99921.78;;;1.52;81.65
78717;BME280;68045;50.042;14.432;2024-01-30T17:53:12;99907.56;;;1.56;81.38
78717;BME280;68045;50.042;14.432;2024-01-30T17:57:13;99922.16;;;1.48;81.86
78717;BME280;68045;50.042;14.432;2024-01-30T18:01:14;99920.09;;;1.42;81.95
78717;BME280;68045;50.042;14.432;2024-01-30T18:05:15;99929.59;;;1.62;81.38
78717;BME280;68045;50.042;14.432;2024-01-30T18:09:16;99916.78;;;1.70;80.68
78717;BME280;68045;50.042;14.432;2024-01-30T18:13:17;99923.34;;;1.64;80.66
78717;BME280;68045;50.042;14.432;2024-01-30T18:17:18;99917.47;;;1.72;80.93
78717;BME280;68045;50.042;14.432;2024-01-30T18:21:19;99919.34;;;1.60;80.67
78717;BME280;68045;50.042;14.432;2024-01-30T18:25:20;99917.19;;;1.75;80.18
78717;BME280;68045;50.042;14.432;2024-01-30T18:29:21;99914.72;;;1.74;80.41
78717;BME280;68045;50.042;14.432;2024-01-30T18:33:22;99909.53;;;1.74;80.28
78717;BME280;68045;50.042;14.432;2024-01-30T18:37:24;99914.03;;;1.72;80.54
78717;BME280;68045;50.042;14.432;2024-01-30T18:41:26;99909.09;;;1.69;80.57
78717;BME280;68045;50.042;14.432;2024-01-30T18:45:27;99912.91;;;1.64;80.91
78717;BME280;68045;50.042;14.432;2024-01-30T18:49:28;99900.88;;;1.63;81.32
78717;BME280;68045;50.042;14.432;2024-01-30T18:53:29;99902.75;;;1.52;81.43
78717;BME280;68045;50.042;14.432;2024-01-30T18:57:30;99899.44;;;1.50;81.47
78717;BME280;68045;50.042;14.432;2024-01-30T19:01:30;99908.47;;;1.46;82.14
78717;BME280;68045;50.042;14.432;2024-01-30T19:05:32;99915.66;;;1.63;81.42
78717;BME280;68045;50.042;14.432;2024-01-30T19:09:34;99922.81;;;1.71;80.83
78717;BME280;68045;50.042;14.432;2024-01-30T19:13:35;99915.78;;;1.61;80.89
78717;BME280;68045;50.042;14.432;2024-01-30T19:17:36;99913.47;;;1.68;81.10
78717;BME280;68045;50.042;14.432;2024-01-30T19:21:37;99904.00;;;1.57;81.10
78717;BME280;68045;50.042;14.432;2024-01-30T19:25:38;99910.25;;;1.45;82.15
78717;BME280;68045;50.042;14.432;2024-01-30T19:29:39;99901.91;;;1.51;81.48
78717;BME280;68045;50.042;14.432;2024-01-30T19:33:41;99915.41;;;1.76;80.54
78717;BME280;68045;50.042;14.432;2024-01-30T19:37:41;99914.72;;;1.74;80.56
78717;BME280;68045;50.042;14.432;2024-01-30T19:41:42;99914.47;;;1.77;80.13
78717;BME280;68045;50.042;14.432;2024-01-30T19:45:43;99911.72;;;1.78;80.31
78717;BME280;68045;50.042;14.432;2024-01-30T19:49:44;99908.44;;;1.76;80.14
78717;BME280;68045;50.042;14.432;2024-01-30T19:53:45;99895.97;;;1.70;80.51
78717;BME280;68045;50.042;14.432;2024-01-30T19:57:46;99912.41;;;1.71;80.50
78717;BME280;68045;50.042;14.432;2024-01-30T20:01:47;99909.78;;;1.71;80.03
78717;BME280;68045;50.042;14.432;2024-01-30T20:05:48;99905.47;;;1.90;79.79
78717;BME280;68045;50.042;14.432;2024-01-30T20:09:48;99906.53;;;1.78;79.86
78717;BME280;68045;50.042;14.432;2024-01-30T20:13:49;99899.69;;;1.77;80.15
78717;BME280;68045;50.042;14.432;2024-01-30T20:17:50;99901.31;;;1.78;79.65
78717;BME280;68045;50.042;14.432;2024-01-30T20:21:51;99911.66;;;1.59;80.55
78717;BME280;68045;50.042;14.432;2024-01-30T20:25:52;99907.63;;;1.45;81.26
78717;BME280;68045;50.042;14.432;2024-01-30T20:29:53;99905.97;;;1.34;81.52
78717;BME280;68045;50.042;14.432;2024-01-30T20:33:55;99907.34;;;1.38;81.60
78717;BME280;68045;50.042;14.432;2024-01-30T20:37:56;99911.28;;;1.33;81.76
78717;BME280;68045;50.042;14.432;2024-01-30T20:41:57;99905.41;;;1.41;81.84
78717;BME280;68045;50.042;14.432;2024-01-30T20:45:58;99904.50;;;1.42;81.31
78717;BME280;68045;50.042;14.432;2024-01-30T20:49:58;99908.06;;;1.50;81.48
78717;BME280;68045;50.042;14.432;2024-01-30T20:53:59;99904.81;;;1.58;81.16
78717;BME280;68045;50.042;14.432;2024-01-30T20:58:00;99902.44;;;1.45;81.24
78717;BME280;68045;50.042;14.432;2024-01-30T21:02:01;99903.84;;;1.49;81.32
78717;BME280;68045;50.042;14.432;2024-01-30T21:06:02;99899.31;;;1.51;80.98
78717;BME280;68045;50.042;14.432;2024-01-30T21:10:03;99899.03;;;1.54;81.38
78717;BME280;68045;50.042;14.432;2024-01-30T21:14:04;99907.78;;;1.44;81.62